createdAt,value
2023-02-08T00:00:55.500Z,12.77
2023-02-08T00:03:22.629Z,12.90
2023-02-08T00:05:49.611Z,13.73
2023-02-08T00:08:16.802Z,15.48
2023-02-08T00:10:44.198Z,13.45
2023-02-08T00:13:11.082Z,12.30
2023-02-08T00:15:42.183Z,11.25
2023-02-08T00:18:09.545Z,12.73
2023-02-08T00:20:39.068Z,13.40
2023-02-08T00:23:06.546Z,13.98
2023-02-08T00:25:33.743Z,19.55
2023-02-08T00:28:01.776Z,13.80
2023-02-08T00:30:30.225Z,13.40
2023-02-08T00:32:57.168Z,11.38
2023-02-08T00:35:24.122Z,11.77
2023-02-08T00:37:50.955Z,16.65
2023-02-08T00:40:18.650Z,14.60
2023-02-08T00:42:45.832Z,12.57
2023-02-08T00:45:12.905Z,16.63
2023-02-08T00:47:39.844Z,10.98
2023-02-08T00:50:07.409Z,13.82
2023-02-08T00:52:37.135Z,13.25
2023-02-08T00:55:05.050Z,12.63
2023-02-08T00:57:35.595Z,12.93
2023-02-08T01:00:03.165Z,14.80
2023-02-08T01:02:30.112Z,11.15
2023-02-08T01:04:57.023Z,12.70
2023-02-08T01:07:23.923Z,14.23
2023-02-08T01:09:50.839Z,15.15
2023-02-08T01:12:17.895Z,11.57
2023-02-08T01:14:44.876Z,14.60
2023-02-08T01:17:11.746Z,14.02
2023-02-08T01:19:39.116Z,13.85
2023-02-08T01:22:05.967Z,12.05
2023-02-08T01:24:33.196Z,13.35
2023-02-08T01:27:00.201Z,17.20
2023-02-08T01:29:27.924Z,13.52
2023-02-08T01:31:54.742Z,16.05
2023-02-08T01:34:21.621Z,13.25
2023-02-08T01:36:48.507Z,11.95
2023-02-08T01:39:15.408Z,14.18
2023-02-08T01:41:44.434Z,13.63
2023-02-08T01:44:11.228Z,13.65
2023-02-08T01:46:46.019Z,16.42
2023-02-08T01:49:24.879Z,13.30
2023-02-08T01:51:57.601Z,13.88
2023-02-08T01:54:27.589Z,12.65
2023-02-08T01:56:54.732Z,13.10
2023-02-08T01:59:26.576Z,13.13
2023-02-08T02:01:56.275Z,13.38
2023-02-08T02:04:23.530Z,14.05
2023-02-08T02:06:56.095Z,13.48
2023-02-08T02:12:00.985Z,16.00
2023-02-08T02:14:28.239Z,16.42
2023-02-08T02:16:55.175Z,13.02
2023-02-08T02:19:31.238Z,13.60
2023-02-08T02:22:18.883Z,15.32
2023-02-08T02:25:17.312Z,14.85
2023-02-08T02:28:39.416Z,13.27
2023-02-08T02:31:26.476Z,14.30
2023-02-08T02:34:09.843Z,13.88
2023-02-08T02:36:55.224Z,13.63
2023-02-08T02:39:57.635Z,14.82
2023-02-08T02:43:14.417Z,17.45
2023-02-08T02:45:56.578Z,12.85
2023-02-08T02:48:51.813Z,14.05
2023-02-08T02:51:32.766Z,14.68
2023-02-08T02:54:06.790Z,14.13
2023-02-08T02:56:42.344Z,14.73
2023-02-08T02:59:11.608Z,12.45
2023-02-08T03:01:39.941Z,13.23
2023-02-08T03:04:19.741Z,15.75
2023-02-08T03:06:59.296Z,15.55
2023-02-08T03:10:10.791Z,14.10
2023-02-08T03:12:58.638Z,12.88
2023-02-08T03:15:51.476Z,13.18
2023-02-08T03:18:36.608Z,12.20
2023-02-08T03:21:11.910Z,11.35
2023-02-08T03:24:01.777Z,13.73
2023-02-08T03:26:35.567Z,14.02
2023-02-08T03:29:32.146Z,13.98
2023-02-08T03:32:02.584Z,14.18
2023-02-08T03:34:39.214Z,15.88
2023-02-08T03:37:30.326Z,13.15
2023-02-08T03:40:04.813Z,14.85
2023-02-08T03:42:33.282Z,16.27
2023-02-08T03:45:12.989Z,13.88
2023-02-08T03:47:42.551Z,13.50
2023-02-08T03:50:12.922Z,13.52
2023-02-08T03:52:40.084Z,16.25
2023-02-08T03:55:20.230Z,15.35
2023-02-08T03:58:13.100Z,17.30
2023-02-08T04:00:44.474Z,14.80
2023-02-08T04:03:17.476Z,13.93
2023-02-08T04:05:44.528Z,12.10
2023-02-08T04:08:11.400Z,11.43
2023-02-08T04:10:38.542Z,14.65
2023-02-08T04:13:05.372Z,14.10
2023-02-08T04:15:32.454Z,15.25
2023-02-08T04:17:59.269Z,15.88
2023-02-08T04:20:26.069Z,12.63
2023-02-08T04:22:52.963Z,14.82
2023-02-08T04:25:19.854Z,16.08
2023-02-08T04:27:46.743Z,14.55
2023-02-08T04:30:13.977Z,14.30
2023-02-08T04:32:40.798Z,12.68
2023-02-08T04:35:07.864Z,14.07
2023-02-08T04:37:34.933Z,13.85
2023-02-08T04:40:02.081Z,15.10
2023-02-08T04:42:29.023Z,14.10
2023-02-08T04:44:55.910Z,13.93
2023-02-08T04:47:22.868Z,14.60
2023-02-08T04:49:49.693Z,13.35
2023-02-08T04:52:16.544Z,16.80
2023-02-08T04:54:43.343Z,15.73
2023-02-08T04:57:13.858Z,15.32
2023-02-08T04:59:40.999Z,17.80
2023-02-08T05:02:07.891Z,15.85
2023-02-08T05:04:34.809Z,15.77
2023-02-08T05:07:02.020Z,16.05
2023-02-08T05:09:28.931Z,18.63
2023-02-08T05:11:55.758Z,14.10
2023-02-08T05:14:22.843Z,15.35
2023-02-08T05:16:49.632Z,17.15
2023-02-08T05:19:16.406Z,14.07
2023-02-08T05:21:43.474Z,18.23
2023-02-08T05:24:12.422Z,17.48
2023-02-08T05:26:40.356Z,15.85
2023-02-08T05:29:07.818Z,15.27
2023-02-08T05:31:34.882Z,14.82
2023-02-08T05:34:01.832Z,17.50
2023-02-08T05:36:28.678Z,14.38
2023-02-08T05:38:55.520Z,15.27
2023-02-08T05:41:22.519Z,17.52
2023-02-08T05:43:49.396Z,15.95
2023-02-08T05:46:16.277Z,18.92
2023-02-08T05:48:43.209Z,17.38
2023-02-08T05:51:10.285Z,15.77
2023-02-08T05:53:37.695Z,21.20
2023-02-08T05:56:04.737Z,17.10
2023-02-08T05:58:31.591Z,13.73
2023-02-08T06:00:58.362Z,16.02
2023-02-08T06:03:25.512Z,15.70
2023-02-08T06:05:52.333Z,16.58
2023-02-08T06:08:19.208Z,18.75
2023-02-08T06:10:49.011Z,20.80
2023-02-08T06:13:16.049Z,17.23
2023-02-08T06:15:43.032Z,17.70
2023-02-08T06:18:10.012Z,23.40
2023-02-08T06:20:36.950Z,20.42
2023-02-08T06:23:03.908Z,20.48
2023-02-08T06:25:31.271Z,19.98
2023-02-08T06:27:58.170Z,25.08
2023-02-08T06:30:25.271Z,23.75
2023-02-08T06:32:52.416Z,22.88
2023-02-08T06:35:19.333Z,20.90
2023-02-08T06:37:46.189Z,18.15
2023-02-08T06:40:13.056Z,17.88
2023-02-08T06:42:39.906Z,22.83
2023-02-08T06:45:10.252Z,22.83
2023-02-08T06:47:38.420Z,17.50
2023-02-08T06:50:06.488Z,15.48
2023-02-08T06:52:33.491Z,23.23
2023-02-08T06:55:00.272Z,19.80
2023-02-08T06:57:27.390Z,17.88
2023-02-08T06:59:54.231Z,19.02
2023-02-08T07:02:21.687Z,18.63
2023-02-08T07:04:48.934Z,19.13
2023-02-08T07:07:17.937Z,20.25
2023-02-08T07:09:44.784Z,19.77
2023-02-08T07:12:11.670Z,19.70
2023-02-08T07:14:42.824Z,16.60
2023-02-08T07:17:10.871Z,19.15
2023-02-08T07:19:37.718Z,19.60
2023-02-08T07:22:08.208Z,21.50
2023-02-08T07:24:40.403Z,21.08
2023-02-08T07:27:09.427Z,18.10
2023-02-08T07:29:37.011Z,18.85
2023-02-08T07:32:05.248Z,20.70
2023-02-08T07:34:34.931Z,21.42
2023-02-08T07:37:01.816Z,21.75
2023-02-08T07:39:28.678Z,23.35
2023-02-08T07:41:55.517Z,19.88
2023-02-08T07:44:23.108Z,19.17
2023-02-08T07:46:49.998Z,20.20
2023-02-08T07:49:16.798Z,21.92
2023-02-08T07:51:43.603Z,20.33
2023-02-08T07:54:10.422Z,24.05
2023-02-08T07:56:37.262Z,22.90
2023-02-08T07:59:04.118Z,19.55
2023-02-08T08:01:31.000Z,18.77
2023-02-08T08:03:57.960Z,17.83
2023-02-08T08:06:24.851Z,19.27
2023-02-08T08:08:51.741Z,15.32
2023-02-08T08:11:20.735Z,17.33
2023-02-08T08:13:47.658Z,15.55
2023-02-08T08:16:14.914Z,15.80
2023-02-08T08:18:41.924Z,14.85
2023-02-08T08:21:09.363Z,17.52
2023-02-08T08:23:36.663Z,15.02
2023-02-08T08:26:17.763Z,16.50
2023-02-08T08:28:46.909Z,18.95
2023-02-08T08:31:16.857Z,16.98
2023-02-08T08:33:44.260Z,16.00
2023-02-08T08:36:11.135Z,14.82
2023-02-08T08:38:41.884Z,15.88
2023-02-08T08:41:14.948Z,16.35
2023-02-08T08:43:41.848Z,14.65
2023-02-08T08:46:09.346Z,14.82
2023-02-08T08:48:37.153Z,13.45
2023-02-08T08:51:04.745Z,14.68
2023-02-08T08:53:31.579Z,14.18
2023-02-08T08:55:58.499Z,12.10
2023-02-08T08:58:25.355Z,15.38
2023-02-08T09:00:52.257Z,14.90
2023-02-08T09:03:19.048Z,13.60
2023-02-08T09:05:47.191Z,13.90
2023-02-08T09:08:14.019Z,13.60
2023-02-08T09:10:41.266Z,13.13
2023-02-08T09:13:08.577Z,14.23
2023-02-08T09:15:39.721Z,13.93
2023-02-08T09:18:06.912Z,14.02
2023-02-08T09:20:33.816Z,12.38
2023-02-08T09:23:00.767Z,14.27
2023-02-08T09:25:27.743Z,13.00
2023-02-08T09:27:54.592Z,14.60
2023-02-08T09:30:21.478Z,13.50
2023-02-08T09:32:48.339Z,14.48
2023-02-08T09:35:15.438Z,12.93
2023-02-08T09:37:42.333Z,17.00
2023-02-08T09:40:22.826Z,16.27
2023-02-08T09:43:01.127Z,12.95
2023-02-08T09:45:57.855Z,15.18
2023-02-08T09:48:38.045Z,15.02
2023-02-08T09:51:25.101Z,15.00
2023-02-08T09:53:58.228Z,12.82
2023-02-08T09:56:29.925Z,13.98
2023-02-08T09:58:57.479Z,16.38
2023-02-08T10:01:45.691Z,16.48
2023-02-08T10:04:24.151Z,16.75
2023-02-08T10:06:51.249Z,15.55
2023-02-08T10:09:22.457Z,16.50
2023-02-08T10:12:12.824Z,18.50
2023-02-08T10:15:03.169Z,13.25
2023-02-08T10:17:33.077Z,12.60
2023-02-08T10:20:27.524Z,17.00
2023-02-08T10:23:06.387Z,14.93
2023-02-08T10:25:51.818Z,19.02
2023-02-08T10:28:32.919Z,15.35
2023-02-08T10:31:35.685Z,12.55
2023-02-08T10:34:11.553Z,13.70
2023-02-08T10:36:43.089Z,14.82
2023-02-08T10:39:34.210Z,15.18
2023-02-08T10:42:04.563Z,14.00
2023-02-08T10:44:48.482Z,14.85
2023-02-08T10:47:33.574Z,13.63
2023-02-08T10:50:07.379Z,14.93
2023-02-08T10:52:34.303Z,14.50
2023-02-08T10:55:01.325Z,16.38
2023-02-08T10:57:34.982Z,14.18
2023-02-08T11:00:10.573Z,15.93
2023-02-08T11:02:42.601Z,15.73
2023-02-08T11:05:17.264Z,14.85
2023-02-08T11:07:44.380Z,14.68
2023-02-08T11:10:29.203Z,19.15
2023-02-08T11:13:01.024Z,13.98
2023-02-08T11:15:37.950Z,14.27
2023-02-08T11:18:07.271Z,16.52
2023-02-08T11:20:38.883Z,12.15
2023-02-08T11:23:19.622Z,13.15
2023-02-08T11:25:46.835Z,12.30
2023-02-08T11:28:31.223Z,14.07
2023-02-08T11:31:08.249Z,10.52
2023-02-08T11:33:35.451Z,11.18
2023-02-08T11:36:09.790Z,13.05
2023-02-08T11:38:42.132Z,11.77
2023-02-08T11:41:17.340Z,13.18
2023-02-08T11:43:50.574Z,10.05
2023-02-08T11:46:23.667Z,9.95
2023-02-08T11:48:52.719Z,10.85
2023-02-08T11:51:37.373Z,8.27
2023-02-08T11:54:05.698Z,9.98
2023-02-08T11:56:34.506Z,10.63
2023-02-08T11:59:07.666Z,10.55
2023-02-08T12:01:37.324Z,8.75
2023-02-08T12:04:10.346Z,15.00
2023-02-08T12:06:55.134Z,9.95
2023-02-08T12:09:41.764Z,8.32
2023-02-08T12:12:49.943Z,8.75
2023-02-08T12:15:22.834Z,8.75
2023-02-08T12:20:41.363Z,10.20
2023-02-08T12:23:35.963Z,9.18
2023-02-08T12:26:20.033Z,9.63
2023-02-08T12:29:22.511Z,7.88
2023-02-08T12:32:10.779Z,8.35
2023-02-08T12:35:11.640Z,8.68
2023-02-08T12:38:07.296Z,11.48
2023-02-08T12:41:13.572Z,8.70
2023-02-08T12:44:07.652Z,7.50
2023-02-08T12:46:58.752Z,10.35
2023-02-08T12:49:37.475Z,8.95
2023-02-08T12:52:17.434Z,7.75
2023-02-08T12:54:50.955Z,9.43
2023-02-08T12:57:23.045Z,8.13
2023-02-08T13:00:01.742Z,7.72
2023-02-08T13:02:45.044Z,6.10
2023-02-08T13:05:22.496Z,7.72
2023-02-08T13:07:56.156Z,6.18
2023-02-08T13:10:29.495Z,6.68
2023-02-08T13:13:07.250Z,7.05
2023-02-08T13:15:45.441Z,6.35
2023-02-08T13:18:18.994Z,7.60
2023-02-08T13:20:52.482Z,6.68
2023-02-08T13:23:29.916Z,6.93
2023-02-08T13:26:02.730Z,6.38
2023-02-08T13:31:05.833Z,8.50
2023-02-08T13:34:02.127Z,6.15
2023-02-08T13:36:39.573Z,6.47
2023-02-08T13:39:26.838Z,5.95
2023-02-08T13:41:56.783Z,12.57
2023-02-08T13:44:31.676Z,7.05
2023-02-08T13:46:58.973Z,8.07
2023-02-08T13:49:51.084Z,6.38
2023-02-08T13:52:46.352Z,7.72
2023-02-08T13:55:33.293Z,7.07
2023-02-08T13:58:13.321Z,7.70
2023-02-08T14:00:56.738Z,9.18
2023-02-08T14:03:33.941Z,6.60
2023-02-08T14:06:21.391Z,9.30
2023-02-08T14:09:02.935Z,6.18
2023-02-08T14:11:50.127Z,7.75
2023-02-08T14:14:27.840Z,11.25
2023-02-08T14:17:29.066Z,11.10
2023-02-08T14:19:59.841Z,8.13
2023-02-08T14:22:31.446Z,9.73
2023-02-08T14:25:17.367Z,8.73
2023-02-08T14:27:59.992Z,9.15
2023-02-08T14:30:38.818Z,12.13
2023-02-08T14:33:08.608Z,10.73
2023-02-08T14:35:42.837Z,12.65
2023-02-08T14:38:19.503Z,12.65
2023-02-08T14:40:52.204Z,10.57
2023-02-08T14:43:19.261Z,10.88
2023-02-08T14:45:51.024Z,11.20
2023-02-08T14:48:18.104Z,9.57
2023-02-08T14:51:03.096Z,10.45
2023-02-08T14:53:30.062Z,10.32
2023-02-08T14:56:03.031Z,9.23
2023-02-08T15:01:06.116Z,12.18
2023-02-08T15:03:35.095Z,12.32
2023-02-08T15:06:22.815Z,15.63
2023-02-08T15:08:52.575Z,10.60
2023-02-08T15:11:31.868Z,13.18
2023-02-08T15:14:01.789Z,15.45
2023-02-08T15:16:41.556Z,12.52
2023-02-08T15:19:15.554Z,14.57
2023-02-08T15:21:42.572Z,13.75
2023-02-08T15:24:17.086Z,13.50
2023-02-08T15:26:49.202Z,14.13
2023-02-08T15:29:26.147Z,12.30
2023-02-08T15:31:57.442Z,13.57
2023-02-08T15:34:26.242Z,11.75
2023-02-08T15:36:55.585Z,17.30
2023-02-08T15:39:31.313Z,14.98
2023-02-08T15:42:01.668Z,14.13
2023-02-08T15:44:31.995Z,16.83
2023-02-08T15:47:04.679Z,13.88
2023-02-08T15:49:37.620Z,12.60
2023-02-08T15:52:05.832Z,15.13
2023-02-08T15:54:32.887Z,12.88
2023-02-08T15:57:16.468Z,15.27
2023-02-08T15:59:45.882Z,12.50
2023-02-08T16:02:31.159Z,14.65
2023-02-08T16:04:59.859Z,14.93
2023-02-08T16:07:29.606Z,15.18
2023-02-08T16:09:57.530Z,13.05
2023-02-08T16:12:26.430Z,16.55
2023-02-08T16:14:56.851Z,15.80
2023-02-08T16:17:44.081Z,15.50
2023-02-08T16:20:31.302Z,12.88
2023-02-08T16:23:03.137Z,13.65
2023-02-08T16:25:34.652Z,14.23
2023-02-08T16:28:03.221Z,17.67
2023-02-08T16:30:30.667Z,17.00
2023-02-08T16:32:57.850Z,18.17
2023-02-08T16:35:29.586Z,16.45
2023-02-08T16:38:00.830Z,14.88
2023-02-08T16:40:53.878Z,15.75
2023-02-08T16:43:26.699Z,16.98
2023-02-08T16:46:11.934Z,17.83
2023-02-08T16:48:41.113Z,18.58
2023-02-08T16:51:14.640Z,18.95
2023-02-08T16:53:42.772Z,16.75
2023-02-08T16:56:11.336Z,19.40
2023-02-08T16:58:38.990Z,18.65
2023-02-08T17:01:06.524Z,17.63
2023-02-08T17:03:33.520Z,20.02
2023-02-08T17:06:01.109Z,35.47
2023-02-08T17:08:28.178Z,44.72
2023-02-08T17:10:58.856Z,97.30
2023-02-08T17:13:29.244Z,65.68
2023-02-08T17:15:57.760Z,49.08
2023-02-08T17:18:24.560Z,44.42
2023-02-08T17:20:57.668Z,38.45
2023-02-08T17:23:24.692Z,29.05
2023-02-08T17:25:52.383Z,26.13
2023-02-08T17:28:20.865Z,26.52
2023-02-08T17:30:49.423Z,23.70
2023-02-08T17:33:19.810Z,24.15
2023-02-08T17:35:49.107Z,25.58
2023-02-08T17:38:16.544Z,28.08
2023-02-08T17:40:44.249Z,23.35
2023-02-08T17:43:12.755Z,26.25
2023-02-08T17:45:42.332Z,25.15
2023-02-08T17:48:09.487Z,20.92
2023-02-08T17:50:37.080Z,22.30
2023-02-08T17:53:04.651Z,24.15
2023-02-08T17:55:31.862Z,24.50
2023-02-08T17:57:58.935Z,24.25
2023-02-08T18:00:26.411Z,28.55
2023-02-08T18:02:55.739Z,23.63
2023-02-08T18:05:25.757Z,20.45
2023-02-08T18:07:55.269Z,21.10
2023-02-08T18:10:24.154Z,22.85
2023-02-08T18:12:51.133Z,21.80
2023-02-08T18:15:21.206Z,20.88
2023-02-08T18:17:48.761Z,24.30
2023-02-08T18:20:16.562Z,22.13
2023-02-08T18:22:44.547Z,25.10
2023-02-08T18:25:12.908Z,22.98
2023-02-08T18:27:40.340Z,23.75
2023-02-08T18:30:07.820Z,21.63
2023-02-08T18:32:34.819Z,24.63
2023-02-08T18:35:04.121Z,21.35
2023-02-08T18:37:32.133Z,22.67
2023-02-08T18:40:00.303Z,24.08
2023-02-08T18:42:27.631Z,22.65
2023-02-08T18:44:54.659Z,26.85
2023-02-08T18:47:21.638Z,23.88
2023-02-08T18:49:54.087Z,23.65
2023-02-08T18:52:22.064Z,21.85
2023-02-08T18:54:49.403Z,22.02
2023-02-08T18:57:16.361Z,22.63
2023-02-08T18:59:43.447Z,21.88
2023-02-08T19:02:16.494Z,24.25
2023-02-08T19:04:43.551Z,24.90
2023-02-08T19:07:10.474Z,24.25
2023-02-08T19:09:38.750Z,21.17
2023-02-08T19:12:07.590Z,24.70
2023-02-08T19:14:35.106Z,25.67
2023-02-08T19:17:02.540Z,22.63
2023-02-08T19:19:38.861Z,27.73
2023-02-08T19:22:08.854Z,25.65
2023-02-08T19:24:35.933Z,23.98
2023-02-08T19:27:02.987Z,25.05
2023-02-08T19:29:29.967Z,23.50
2023-02-08T19:31:58.320Z,24.45
2023-02-08T19:34:25.454Z,24.77
2023-02-08T19:36:54.224Z,27.27
2023-02-08T19:39:25.054Z,28.85
2023-02-08T19:41:53.020Z,25.55
2023-02-08T19:44:20.676Z,25.23
2023-02-08T19:46:49.977Z,27.40
2023-02-08T19:49:17.667Z,23.88
2023-02-08T19:51:44.866Z,25.15
2023-02-08T19:54:15.336Z,25.10
2023-02-08T19:56:42.333Z,25.25
2023-02-08T19:59:17.797Z,22.92
2023-02-08T20:01:45.346Z,23.88
2023-02-08T20:04:12.834Z,22.60
2023-02-08T20:06:40.370Z,24.33
2023-02-08T20:09:08.354Z,27.02
2023-02-08T20:11:45.145Z,29.60
2023-02-08T20:14:18.170Z,26.30
2023-02-08T20:16:45.181Z,25.20
2023-02-08T20:19:13.244Z,25.05
2023-02-08T20:21:40.945Z,25.90
2023-02-08T20:24:11.568Z,22.92
2023-02-08T20:26:45.324Z,24.05
2023-02-08T20:29:14.337Z,23.45
2023-02-08T20:31:43.428Z,21.35
2023-02-08T20:34:13.195Z,23.20
2023-02-08T20:36:44.966Z,25.67
2023-02-08T20:39:15.972Z,23.90
2023-02-08T20:41:44.426Z,23.98
2023-02-08T20:44:12.669Z,23.08
2023-02-08T20:46:41.256Z,26.30
2023-02-08T20:49:08.165Z,25.08
2023-02-08T20:51:37.463Z,24.60
2023-02-08T20:54:04.637Z,24.23
2023-02-08T20:56:34.890Z,23.25
2023-02-08T20:59:07.743Z,21.88
2023-02-08T21:01:36.144Z,22.98
2023-02-08T21:04:06.394Z,23.63
2023-02-08T21:06:35.947Z,24.25
2023-02-08T21:09:07.364Z,24.38
2023-02-08T21:11:35.365Z,23.02
2023-02-08T21:14:02.927Z,24.30
2023-02-08T21:16:33.306Z,23.92
2023-02-08T21:19:00.639Z,24.15
2023-02-08T21:21:35.031Z,25.00
2023-02-08T21:24:04.749Z,22.80
2023-02-08T21:26:34.032Z,29.45
2023-02-08T21:29:06.024Z,27.65
2023-02-08T21:31:38.576Z,27.20
2023-02-08T21:34:06.429Z,23.65
2023-02-08T21:36:41.239Z,26.23
2023-02-08T21:39:08.289Z,28.13
2023-02-08T21:41:44.079Z,24.45
2023-02-08T21:44:11.226Z,26.40
2023-02-08T21:46:40.350Z,26.83
2023-02-08T21:49:25.973Z,21.17
2023-02-08T21:52:11.347Z,26.75
2023-02-08T21:54:45.924Z,23.52
2023-02-08T21:57:37.936Z,23.30
2023-02-08T22:00:08.268Z,25.60
2023-02-08T22:02:39.721Z,24.60
2023-02-08T22:05:25.575Z,23.27
2023-02-08T22:07:56.303Z,19.08
2023-02-08T22:10:25.702Z,23.23
2023-02-08T22:12:54.129Z,24.67
2023-02-08T22:15:24.417Z,27.00
2023-02-08T22:17:56.065Z,25.40
2023-02-08T22:20:23.581Z,25.40
2023-02-08T22:22:55.042Z,24.10
2023-02-08T22:25:23.518Z,23.20
2023-02-08T22:27:50.625Z,24.85
2023-02-08T22:30:25.746Z,24.35
2023-02-08T22:32:53.181Z,27.33
2023-02-08T22:35:24.073Z,26.92
2023-02-08T22:37:51.416Z,25.70
2023-02-08T22:40:18.621Z,27.17
2023-02-08T22:42:45.827Z,22.58
2023-02-08T22:45:12.991Z,24.63
2023-02-08T22:47:39.981Z,26.63
2023-02-08T22:50:08.593Z,27.30
2023-02-08T22:52:35.844Z,25.63
2023-02-08T22:55:10.811Z,28.33
2023-02-08T22:57:37.901Z,26.48
2023-02-08T23:00:09.819Z,28.35
2023-02-08T23:02:36.995Z,24.15
2023-02-08T23:05:04.220Z,27.20
2023-02-08T23:07:32.085Z,25.35
2023-02-08T23:10:02.195Z,24.90
2023-02-08T23:12:29.813Z,27.35
2023-02-08T23:14:59.015Z,25.25
2023-02-08T23:17:26.299Z,25.73
2023-02-08T23:19:53.430Z,28.70
2023-02-08T23:22:22.838Z,21.80
2023-02-08T23:24:49.802Z,24.20
2023-02-08T23:27:16.915Z,24.02
2023-02-08T23:29:43.748Z,24.98
2023-02-08T23:32:10.748Z,24.70
2023-02-08T23:34:37.715Z,25.35
2023-02-08T23:37:04.779Z,28.98
2023-02-08T23:39:34.141Z,22.98
2023-02-08T23:42:01.182Z,26.92
2023-02-08T23:44:28.177Z,25.05
2023-02-08T23:46:55.209Z,25.98
2023-02-08T23:49:22.214Z,28.15
2023-02-08T23:51:49.124Z,24.25
2023-02-08T23:54:15.995Z,24.70
2023-02-08T23:56:42.860Z,24.08
2023-02-08T23:59:10.701Z,25.80
